sensor_id;sensor_type;location;lat;lon;timestamp;P1;durP1;ratioP1;P2;durP2;ratioP2
42586;SDS011;28216;53.362;-6.288;2023-04-01T00:01:10;3.40;;;3.10;;
42586;SDS011;28216;53.362;-6.288;2023-04-01T00:03:38;3.13;;;2.83;;
42586;SDS011;28216;53.362;-6.288;2023-04-01T00:06:04;2.75;;;2.55;;
42586;SDS011;28216;53.362;-6.288;2023-04-01T00:08:30;3.17;;;2.90;;
42586;SDS011;28216;53.362;-6.288;2023-04-01T00:10:56;3.10;;;2.90;;
42586;SDS011;28216;53.362;-6.288;2023-04-01T00:13:22;2.72;;;2.53;;
42586;SDS011;28216;53.362;-6.288;2023-04-01T00:15:48;3.10;;;2.90;;
42586;SDS011;28216;53.362;-6.288;2023-04-01T00:18:13;3.17;;;2.80;;
42586;SDS011;28216;53.362;-6.288;2023-04-01T00:20:42;3.03;;;2.72;;
42586;SDS011;28216;53.362;-6.288;2023-04-01T00:23:09;3.33;;;3.00;;
42586;SDS011;28216;53.362;-6.288;2023-04-01T00:25:35;2.80;;;2.60;;
42586;SDS011;28216;53.362;-6.288;2023-04-01T00:28:00;4.03;;;2.88;;
42586;SDS011;28216;53.362;-6.288;2023-04-01T00:30:26;3.42;;;3.00;;
42586;SDS011;28216;53.362;-6.288;2023-04-01T00:32:52;3.08;;;2.70;;
42586;SDS011;28216;53.362;-6.288;2023-04-01T00:35:18;2.90;;;2.70;;
42586;SDS011;28216;53.362;-6.288;2023-04-01T00:37:43;3.88;;;2.53;;
42586;SDS011;28216;53.362;-6.288;2023-04-01T00:40:20;2.95;;;2.70;;
42586;SDS011;28216;53.362;-6.288;2023-04-01T00:42:50;2.70;;;2.50;;
42586;SDS011;28216;53.362;-6.288;2023-04-01T00:45:32;2.65;;;2.45;;
42586;SDS011;28216;53.362;-6.288;2023-04-01T00:48:20;2.90;;;2.70;;
42586;SDS011;28216;53.362;-6.288;2023-04-01T00:50:52;2.97;;;2.67;;
42586;SDS011;28216;53.362;-6.288;2023-04-01T00:53:21;3.40;;;3.10;;
42586;SDS011;28216;53.362;-6.288;2023-04-01T00:55:57;3.05;;;2.78;;
42586;SDS011;28216;53.362;-6.288;2023-04-01T00:58:26;3.40;;;3.10;;
42586;SDS011;28216;53.362;-6.288;2023-04-01T01:00:56;3.60;;;3.30;;
42586;SDS011;28216;53.362;-6.288;2023-04-01T01:03:23;4.13;;;3.40;;
42586;SDS011;28216;53.362;-6.288;2023-04-01T01:08:28;3.58;;;3.28;;
42586;SDS011;28216;53.362;-6.288;2023-04-01T01:11:11;3.75;;;3.10;;
42586;SDS011;28216;53.362;-6.288;2023-04-01T01:13:47;3.30;;;3.10;;
42586;SDS011;28216;53.362;-6.288;2023-04-01T01:16:25;3.22;;;2.92;;
42586;SDS011;28216;53.362;-6.288;2023-04-01T01:27:00;2.58;;;2.38;;
42586;SDS011;28216;53.362;-6.288;2023-04-01T01:34:46;2.83;;;2.30;;
42586;SDS011;28216;53.362;-6.288;2023-04-01T01:39:47;2.60;;;2.25;;
42586;SDS011;28216;53.362;-6.288;2023-04-01T01:42:17;2.60;;;2.40;;
42586;SDS011;28216;53.362;-6.288;2023-04-01T01:44:45;3.55;;;2.53;;
42586;SDS011;28216;53.362;-6.288;2023-04-01T01:47:14;2.75;;;2.55;;
42586;SDS011;28216;53.362;-6.288;2023-04-01T01:49:42;3.00;;;2.75;;
42586;SDS011;28216;53.362;-6.288;2023-04-01T01:52:09;3.58;;;2.40;;
42586;SDS011;28216;53.362;-6.288;2023-04-01T01:54:35;2.65;;;2.45;;
42586;SDS011;28216;53.362;-6.288;2023-04-01T01:57:06;2.78;;;2.58;;
42586;SDS011;28216;53.362;-6.288;2023-04-01T01:59:35;3.08;;;2.38;;
42586;SDS011;28216;53.362;-6.288;2023-04-01T02:02:03;3.30;;;2.42;;
42586;SDS011;28216;53.362;-6.288;2023-04-01T02:04:37;3.17;;;2.67;;
42586;SDS011;28216;53.362;-6.288;2023-04-01T02:07:07;3.80;;;2.35;;
42586;SDS011;28216;53.362;-6.288;2023-04-01T02:09:39;3.40;;;2.50;;
42586;SDS011;28216;53.362;-6.288;2023-04-01T02:12:08;3.42;;;2.58;;
42586;SDS011;28216;53.362;-6.288;2023-04-01T02:17:05;3.10;;;2.33;;
42586;SDS011;28216;53.362;-6.288;2023-04-01T02:19:47;2.92;;;2.50;;
42586;SDS011;28216;53.362;-6.288;2023-04-01T02:22:37;3.83;;;2.60;;
42586;SDS011;28216;53.362;-6.288;2023-04-01T02:25:14;2.40;;;2.20;;
42586;SDS011;28216;53.362;-6.288;2023-04-01T02:27:42;2.33;;;2.08;;
42586;SDS011;28216;53.362;-6.288;2023-04-01T02:30:09;2.40;;;2.20;;
42586;SDS011;28216;53.362;-6.288;2023-04-01T02:32:36;2.45;;;2.10;;
42586;SDS011;28216;53.362;-6.288;2023-04-01T02:35:05;2.38;;;2.00;;
42586;SDS011;28216;53.362;-6.288;2023-04-01T02:37:32;2.20;;;2.00;;
42586;SDS011;28216;53.362;-6.288;2023-04-01T02:40:02;2.70;;;2.30;;
42586;SDS011;28216;53.362;-6.288;2023-04-01T02:42:29;3.58;;;2.28;;
42586;SDS011;28216;53.362;-6.288;2023-04-01T02:44:55;3.03;;;2.30;;
42586;SDS011;28216;53.362;-6.288;2023-04-01T02:47:20;2.40;;;2.20;;
42586;SDS011;28216;53.362;-6.288;2023-04-01T02:49:46;2.53;;;2.33;;
42586;SDS011;28216;53.362;-6.288;2023-04-01T02:52:11;3.42;;;2.38;;
42586;SDS011;28216;53.362;-6.288;2023-04-01T02:54:37;2.83;;;2.30;;
42586;SDS011;28216;53.362;-6.288;2023-04-01T02:57:03;2.42;;;2.22;;
42586;SDS011;28216;53.362;-6.288;2023-04-01T02:59:28;2.67;;;2.47;;
42586;SDS011;28216;53.362;-6.288;2023-04-01T03:01:54;4.63;;;2.63;;
42586;SDS011;28216;53.362;-6.288;2023-04-01T03:04:20;3.67;;;2.40;;
42586;SDS011;28216;53.362;-6.288;2023-04-01T03:06:45;2.58;;;2.25;;
42586;SDS011;28216;53.362;-6.288;2023-04-01T03:09:11;2.85;;;2.30;;
42586;SDS011;28216;53.362;-6.288;2023-04-01T03:11:36;2.60;;;2.40;;
42586;SDS011;28216;53.362;-6.288;2023-04-01T03:14:01;2.30;;;2.10;;
42586;SDS011;28216;53.362;-6.288;2023-04-01T03:16:27;3.67;;;2.30;;
42586;SDS011;28216;53.362;-6.288;2023-04-01T03:18:52;2.92;;;2.40;;
42586;SDS011;28216;53.362;-6.288;2023-04-01T03:21:21;2.67;;;2.30;;
42586;SDS011;28216;53.362;-6.288;2023-04-01T03:23:48;2.53;;;2.30;;
42586;SDS011;28216;53.362;-6.288;2023-04-01T03:26:14;2.95;;;2.67;;
42586;SDS011;28216;53.362;-6.288;2023-04-01T03:28:40;3.97;;;2.30;;
42586;SDS011;28216;53.362;-6.288;2023-04-01T03:31:05;2.60;;;2.40;;
42586;SDS011;28216;53.362;-6.288;2023-04-01T03:33:31;2.92;;;2.30;;
42586;SDS011;28216;53.362;-6.288;2023-04-01T03:35:56;2.50;;;2.30;;
42586;SDS011;28216;53.362;-6.288;2023-04-01T03:38:22;2.40;;;2.20;;
42586;SDS011;28216;53.362;-6.288;2023-04-01T03:40:47;2.55;;;2.35;;
42586;SDS011;28216;53.362;-6.288;2023-04-01T03:43:13;2.97;;;2.28;;
42586;SDS011;28216;53.362;-6.288;2023-04-01T03:45:45;3.75;;;2.22;;
42586;SDS011;28216;53.362;-6.288;2023-04-01T03:48:14;2.95;;;2.40;;
42586;SDS011;28216;53.362;-6.288;2023-04-01T03:50:40;2.58;;;2.38;;
42586;SDS011;28216;53.362;-6.288;2023-04-01T03:53:06;2.80;;;2.20;;
42586;SDS011;28216;53.362;-6.288;2023-04-01T03:55:32;2.97;;;2.40;;
42586;SDS011;28216;53.362;-6.288;2023-04-01T03:57:57;2.60;;;2.20;;
42586;SDS011;28216;53.362;-6.288;2023-04-01T04:00:23;2.83;;;2.40;;
42586;SDS011;28216;53.362;-6.288;2023-04-01T04:02:48;3.28;;;2.55;;
42586;SDS011;28216;53.362;-6.288;2023-04-01T04:05:14;4.25;;;2.00;;
42586;SDS011;28216;53.362;-6.288;2023-04-01T04:07:40;2.65;;;1.83;;
42586;SDS011;28216;53.362;-6.288;2023-04-01T04:10:05;2.30;;;2.10;;
42586;SDS011;28216;53.362;-6.288;2023-04-01T04:12:31;2.35;;;2.10;;
42586;SDS011;28216;53.362;-6.288;2023-04-01T04:14:57;2.20;;;2.00;;
42586;SDS011;28216;53.362;-6.288;2023-04-01T04:17:22;2.33;;;2.03;;
42586;SDS011;28216;53.362;-6.288;2023-04-01T04:19:48;2.03;;;1.85;;
42586;SDS011;28216;53.362;-6.288;2023-04-01T04:22:14;3.08;;;2.00;;
42586;SDS011;28216;53.362;-6.288;2023-04-01T04:24:40;2.53;;;2.30;;
42586;SDS011;28216;53.362;-6.288;2023-04-01T04:27:05;2.65;;;2.13;;
42586;SDS011;28216;53.362;-6.288;2023-04-01T04:29:31;2.45;;;2.03;;
42586;SDS011;28216;53.362;-6.288;2023-04-01T04:31:56;2.50;;;2.13;;
42586;SDS011;28216;53.362;-6.288;2023-04-01T04:34:21;2.17;;;1.85;;
42586;SDS011;28216;53.362;-6.288;2023-04-01T04:36:47;3.85;;;2.28;;
42586;SDS011;28216;53.362;-6.288;2023-04-01T04:39:13;3.10;;;2.20;;
42586;SDS011;28216;53.362;-6.288;2023-04-01T04:41:39;3.08;;;2.00;;
42586;SDS011;28216;53.362;-6.288;2023-04-01T04:44:05;2.80;;;2.13;;
42586;SDS011;28216;53.362;-6.288;2023-04-01T04:46:31;3.30;;;2.30;;
42586;SDS011;28216;53.362;-6.288;2023-04-01T04:48:56;3.90;;;2.00;;
42586;SDS011;28216;53.362;-6.288;2023-04-01T04:51:22;2.60;;;1.90;;
42586;SDS011;28216;53.362;-6.288;2023-04-01T04:53:49;3.65;;;2.10;;
42586;SDS011;28216;53.362;-6.288;2023-04-01T04:56:18;2.72;;;2.40;;
42586;SDS011;28216;53.362;-6.288;2023-04-01T04:58:47;4.93;;;2.42;;
42586;SDS011;28216;53.362;-6.288;2023-04-01T05:01:14;4.38;;;2.10;;
42586;SDS011;28216;53.362;-6.288;2023-04-01T05:03:41;5.03;;;2.22;;
42586;SDS011;28216;53.362;-6.288;2023-04-01T05:06:07;2.28;;;2.08;;
42586;SDS011;28216;53.362;-6.288;2023-04-01T05:08:34;5.68;;;2.30;;
42586;SDS011;28216;53.362;-6.288;2023-04-01T05:11:03;3.05;;;2.25;;
42586;SDS011;28216;53.362;-6.288;2023-04-01T05:13:29;3.30;;;2.08;;
42586;SDS011;28216;53.362;-6.288;2023-04-01T05:15:54;3.20;;;2.20;;
42586;SDS011;28216;53.362;-6.288;2023-04-01T05:18:20;3.40;;;2.38;;
42586;SDS011;28216;53.362;-6.288;2023-04-01T05:20:47;2.75;;;2.20;;
42586;SDS011;28216;53.362;-6.288;2023-04-01T05:23:17;3.05;;;2.20;;
42586;SDS011;28216;53.362;-6.288;2023-04-01T05:25:43;3.08;;;2.08;;
42586;SDS011;28216;53.362;-6.288;2023-04-01T05:28:10;2.55;;;2.10;;
42586;SDS011;28216;53.362;-6.288;2023-04-01T05:30:35;2.35;;;2.15;;
42586;SDS011;28216;53.362;-6.288;2023-04-01T05:33:01;2.75;;;2.00;;
42586;SDS011;28216;53.362;-6.288;2023-04-01T05:35:27;4.53;;;2.03;;
42586;SDS011;28216;53.362;-6.288;2023-04-01T05:37:52;6.65;;;2.10;;
42586;SDS011;28216;53.362;-6.288;2023-04-01T05:40:17;2.20;;;2.00;;
42586;SDS011;28216;53.362;-6.288;2023-04-01T05:42:43;2.10;;;1.90;;
42586;SDS011;28216;53.362;-6.288;2023-04-01T05:45:08;3.22;;;1.98;;
42586;SDS011;28216;53.362;-6.288;2023-04-01T05:47:34;2.25;;;1.85;;
42586;SDS011;28216;53.362;-6.288;2023-04-01T05:50:00;2.30;;;2.00;;
42586;SDS011;28216;53.362;-6.288;2023-04-01T05:52:25;1.90;;;1.70;;
42586;SDS011;28216;53.362;-6.288;2023-04-01T05:54:51;2.13;;;1.70;;
42586;SDS011;28216;53.362;-6.288;2023-04-01T05:57:16;3.03;;;2.28;;
42586;SDS011;28216;53.362;-6.288;2023-04-01T05:59:42;2.30;;;1.98;;
42586;SDS011;28216;53.362;-6.288;2023-04-01T06:02:08;2.17;;;1.90;;
42586;SDS011;28216;53.362;-6.288;2023-04-01T06:04:37;2.90;;;1.80;;
42586;SDS011;28216;53.362;-6.288;2023-04-01T06:07:13;2.05;;;1.85;;
42586;SDS011;28216;53.362;-6.288;2023-04-01T06:09:41;2.28;;;2.08;;
42586;SDS011;28216;53.362;-6.288;2023-04-01T06:20:11;3.00;;;2.10;;
42586;SDS011;28216;53.362;-6.288;2023-04-01T06:31:36;2.60;;;2.40;;
42586;SDS011;28216;53.362;-6.288;2023-04-01T06:33:51;3.67;;;2.47;;
42586;SDS011;28216;53.362;-6.288;2023-04-01T06:38:47;2.88;;;2.55;;
42586;SDS011;28216;53.362;-6.288;2023-04-01T06:46:58;3.92;;;2.40;;
42586;SDS011;28216;53.362;-6.288;2023-04-01T06:49:35;5.70;;;2.55;;
42586;SDS011;28216;53.362;-6.288;2023-04-01T06:55:00;6.40;;;2.75;;
42586;SDS011;28216;53.362;-6.288;2023-04-01T06:57:35;5.43;;;2.88;;
42586;SDS011;28216;53.362;-6.288;2023-04-01T07:00:12;6.18;;;3.40;;
42586;SDS011;28216;53.362;-6.288;2023-04-01T07:02:45;7.30;;;3.85;;
42586;SDS011;28216;53.362;-6.288;2023-04-01T07:05:18;7.25;;;3.50;;
42586;SDS011;28216;53.362;-6.288;2023-04-01T07:07:45;8.70;;;3.60;;
42586;SDS011;28216;53.362;-6.288;2023-04-01T07:10:17;8.43;;;4.10;;
42586;SDS011;28216;53.362;-6.288;2023-04-01T07:12:58;6.93;;;3.80;;
42586;SDS011;28216;53.362;-6.288;2023-04-01T07:18:02;6.72;;;3.97;;
42586;SDS011;28216;53.362;-6.288;2023-04-01T07:20:32;6.55;;;4.18;;
42586;SDS011;28216;53.362;-6.288;2023-04-01T07:26:23;9.68;;;3.80;;
42586;SDS011;28216;53.362;-6.288;2023-04-01T07:28:50;8.50;;;3.90;;
42586;SDS011;28216;53.362;-6.288;2023-04-01T07:34:22;8.30;;;3.80;;
42586;SDS011;28216;53.362;-6.288;2023-04-01T07:36:58;7.13;;;3.42;;
42586;SDS011;28216;53.362;-6.288;2023-04-01T07:39:42;7.53;;;3.97;;
42586;SDS011;28216;53.362;-6.288;2023-04-01T07:42:15;10.77;;;3.97;;
42586;SDS011;28216;53.362;-6.288;2023-04-01T07:50:49;9.35;;;4.65;;
42586;SDS011;28216;53.362;-6.288;2023-04-01T07:53:27;7.93;;;4.15;;
42586;SDS011;28216;53.362;-6.288;2023-04-01T08:01:57;11.07;;;4.60;;
42586;SDS011;28216;53.362;-6.288;2023-04-01T08:10:26;12.00;;;5.35;;
42586;SDS011;28216;53.362;-6.288;2023-04-01T08:15:49;9.68;;;5.10;;
42586;SDS011;28216;53.362;-6.288;2023-04-01T08:23:55;8.10;;;5.13;;
42586;SDS011;28216;53.362;-6.288;2023-04-01T08:29:06;5.72;;;3.72;;
42586;SDS011;28216;53.362;-6.288;2023-04-01T08:31:45;5.20;;;2.72;;
42586;SDS011;28216;53.362;-6.288;2023-04-01T08:34:36;4.50;;;3.10;;
42586;SDS011;28216;53.362;-6.288;2023-04-01T08:37:05;5.25;;;2.75;;
42586;SDS011;28216;53.362;-6.288;2023-04-01T08:39:45;8.68;;;3.33;;
42586;SDS011;28216;53.362;-6.288;2023-04-01T08:45:07;7.43;;;4.13;;
42586;SDS011;28216;53.362;-6.288;2023-04-01T08:47:47;36.92;;;26.40;;
42586;SDS011;28216;53.362;-6.288;2023-04-01T08:53:27;7.88;;;3.95;;
42586;SDS011;28216;53.362;-6.288;2023-04-01T09:26:08;4.82;;;4.03;;
42586;SDS011;28216;53.362;-6.288;2023-04-01T09:32:08;3.50;;;2.88;;
42586;SDS011;28216;53.362;-6.288;2023-04-01T09:34:53;3.05;;;2.22;;
42586;SDS011;28216;53.362;-6.288;2023-04-01T10:17:48;2.97;;;1.55;;
42586;SDS011;28216;53.362;-6.288;2023-04-01T10:34:13;1.02;;;0.90;;
42586;SDS011;28216;53.362;-6.288;2023-04-01T10:36:52;0.95;;;0.88;;
42586;SDS011;28216;53.362;-6.288;2023-04-01T10:48:08;5.30;;;1.25;;
42586;SDS011;28216;53.362;-6.288;2023-04-01T10:56:33;3.08;;;1.02;;
42586;SDS011;28216;53.362;-6.288;2023-04-01T11:02:23;4.05;;;1.00;;
42586;SDS011;28216;53.362;-6.288;2023-04-01T11:26:25;3.65;;;1.30;;
42586;SDS011;28216;53.362;-6.288;2023-04-01T11:48:11;2.63;;;1.20;;
42586;SDS011;28216;53.362;-6.288;2023-04-01T11:51:04;3.80;;;1.98;;
42586;SDS011;28216;53.362;-6.288;2023-04-01T11:56:56;4.22;;;1.33;;
42586;SDS011;28216;53.362;-6.288;2023-04-01T12:10:18;3.75;;;1.42;;
42586;SDS011;28216;53.362;-6.288;2023-04-01T12:38:11;3.58;;;1.80;;
42586;SDS011;28216;53.362;-6.288;2023-04-01T12:48:57;6.00;;;1.67;;
42586;SDS011;28216;53.362;-6.288;2023-04-01T13:16:48;4.43;;;1.70;;
42586;SDS011;28216;53.362;-6.288;2023-04-01T13:19:46;4.13;;;1.80;;
42586;SDS011;28216;53.362;-6.288;2023-04-01T13:25:09;3.90;;;1.90;;
42586;SDS011;28216;53.362;-6.288;2023-04-01T13:27:49;5.55;;;1.80;;
42586;SDS011;28216;53.362;-6.288;2023-04-01T13:30:29;4.25;;;2.17;;
42586;SDS011;28216;53.362;-6.288;2023-04-01T13:35:35;4.53;;;2.08;;
42586;SDS011;28216;53.362;-6.288;2023-04-01T13:38:15;5.75;;;1.95;;
42586;SDS011;28216;53.362;-6.288;2023-04-01T13:43:43;3.92;;;2.03;;
42586;SDS011;28216;53.362;-6.288;2023-04-01T13:49:07;4.60;;;2.05;;
42586;SDS011;28216;53.362;-6.288;2023-04-01T14:27:25;7.75;;;3.00;;
42586;SDS011;28216;53.362;-6.288;2023-04-01T14:38:02;10.52;;;4.97;;
42586;SDS011;28216;53.362;-6.288;2023-04-01T14:40:56;6.07;;;3.22;;
42586;SDS011;28216;53.362;-6.288;2023-04-01T14:43:44;5.65;;;3.00;;
42586;SDS011;28216;53.362;-6.288;2023-04-01T14:56:34;9.52;;;4.07;;
42586;SDS011;28216;53.362;-6.288;2023-04-01T14:59:01;6.18;;;2.22;;
42586;SDS011;28216;53.362;-6.288;2023-04-01T15:04:26;5.40;;;2.00;;
42586;SDS011;28216;53.362;-6.288;2023-04-01T15:07:21;5.05;;;2.78;;
42586;SDS011;28216;53.362;-6.288;2023-04-01T15:26:21;8.50;;;4.50;;
42586;SDS011;28216;53.362;-6.288;2023-04-01T15:29:11;5.85;;;2.70;;
42586;SDS011;28216;53.362;-6.288;2023-04-01T15:37:53;15.63;;;9.52;;
42586;SDS011;28216;53.362;-6.288;2023-04-01T15:40:22;7.43;;;3.10;;
42586;SDS011;28216;53.362;-6.288;2023-04-01T15:43:01;8.60;;;5.32;;
42586;SDS011;28216;53.362;-6.288;2023-04-01T15:48:31;13.90;;;8.02;;
42586;SDS011;28216;53.362;-6.288;2023-04-01T15:51:01;10.15;;;3.78;;
42586;SDS011;28216;53.362;-6.288;2023-04-01T15:53:30;3.42;;;1.30;;
42586;SDS011;28216;53.362;-6.288;2023-04-01T15:56:16;5.57;;;2.53;;
42586;SDS011;28216;53.362;-6.288;2023-04-01T15:59:09;8.20;;;5.60;;
42586;SDS011;28216;53.362;-6.288;2023-04-01T16:01:44;13.52;;;9.07;;
42586;SDS011;28216;53.362;-6.288;2023-04-01T16:04:32;12.52;;;7.40;;
42586;SDS011;28216;53.362;-6.288;2023-04-01T16:09:34;13.20;;;8.57;;
42586;SDS011;28216;53.362;-6.288;2023-04-01T16:14:59;7.25;;;4.13;;
42586;SDS011;28216;53.362;-6.288;2023-04-01T16:17:57;11.65;;;7.55;;
42586;SDS011;28216;53.362;-6.288;2023-04-01T16:23:20;3.97;;;2.08;;
42586;SDS011;28216;53.362;-6.288;2023-04-01T16:25:52;4.07;;;1.63;;
42586;SDS011;28216;53.362;-6.288;2023-04-01T16:28:42;8.27;;;2.90;;
42586;SDS011;28216;53.362;-6.288;2023-04-01T16:34:16;2.60;;;1.83;;
42586;SDS011;28216;53.362;-6.288;2023-04-01T16:42:50;3.80;;;1.77;;
42586;SDS011;28216;53.362;-6.288;2023-04-01T16:45:37;5.15;;;2.38;;
42586;SDS011;28216;53.362;-6.288;2023-04-01T16:48:12;3.10;;;2.10;;
42586;SDS011;28216;53.362;-6.288;2023-04-01T16:50:47;1.70;;;1.50;;
42586;SDS011;28216;53.362;-6.288;2023-04-01T16:54:02;3.80;;;1.90;;
42586;SDS011;28216;53.362;-6.288;2023-04-01T16:56:13;3.67;;;2.80;;
42586;SDS011;28216;53.362;-6.288;2023-04-01T17:01:27;4.15;;;1.55;;
42586;SDS011;28216;53.362;-6.288;2023-04-01T17:06:53;2.70;;;1.20;;
42586;SDS011;28216;53.362;-6.288;2023-04-01T17:14:54;4.15;;;1.40;;
42586;SDS011;28216;53.362;-6.288;2023-04-01T17:17:31;3.33;;;1.20;;
42586;SDS011;28216;53.362;-6.288;2023-04-01T17:25:25;3.65;;;1.40;;
42586;SDS011;28216;53.362;-6.288;2023-04-01T17:27:59;2.05;;;1.40;;
42586;SDS011;28216;53.362;-6.288;2023-04-01T17:30:49;5.78;;;1.63;;
42586;SDS011;28216;53.362;-6.288;2023-04-01T17:42:36;2.50;;;1.50;;
42586;SDS011;28216;53.362;-6.288;2023-04-01T17:44:49;6.55;;;1.98;;
42586;SDS011;28216;53.362;-6.288;2023-04-01T17:52:46;6.22;;;1.80;;
42586;SDS011;28216;53.362;-6.288;2023-04-01T17:55:32;3.55;;;1.58;;
42586;SDS011;28216;53.362;-6.288;2023-04-01T18:04:28;3.90;;;2.00;;
42586;SDS011;28216;53.362;-6.288;2023-04-01T18:07:18;5.95;;;2.47;;
42586;SDS011;28216;53.362;-6.288;2023-04-01T18:21:24;5.13;;;3.20;;
42586;SDS011;28216;53.362;-6.288;2023-04-01T18:24:28;8.13;;;2.53;;
42586;SDS011;28216;53.362;-6.288;2023-04-01T18:29:41;7.25;;;2.33;;
42586;SDS011;28216;53.362;-6.288;2023-04-01T18:37:46;9.30;;;3.78;;
42586;SDS011;28216;53.362;-6.288;2023-04-01T18:40:30;8.00;;;2.53;;
42586;SDS011;28216;53.362;-6.288;2023-04-01T18:45:44;9.55;;;2.45;;
42586;SDS011;28216;53.362;-6.288;2023-04-01T18:50:51;6.90;;;2.63;;
42586;SDS011;28216;53.362;-6.288;2023-04-01T18:59:10;11.30;;;2.90;;
42586;SDS011;28216;53.362;-6.288;2023-04-01T19:04:52;19.98;;;6.03;;
42586;SDS011;28216;53.362;-6.288;2023-04-01T19:07:38;9.55;;;3.65;;
42586;SDS011;28216;53.362;-6.288;2023-04-01T19:21:19;12.07;;;4.35;;
42586;SDS011;28216;53.362;-6.288;2023-04-01T19:36:37;9.55;;;4.68;;
42586;SDS011;28216;53.362;-6.288;2023-04-01T19:44:36;7.45;;;2.25;;
42586;SDS011;28216;53.362;-6.288;2023-04-01T19:52:46;10.13;;;2.65;;
42586;SDS011;28216;53.362;-6.288;2023-04-01T19:58:00;10.18;;;2.95;;
42586;SDS011;28216;53.362;-6.288;2023-04-01T20:00:48;10.77;;;2.72;;
42586;SDS011;28216;53.362;-6.288;2023-04-01T20:03:23;10.98;;;2.28;;
42586;SDS011;28216;53.362;-6.288;2023-04-01T20:08:39;7.78;;;2.20;;
42586;SDS011;28216;53.362;-6.288;2023-04-01T20:17:24;6.85;;;2.80;;
42586;SDS011;28216;53.362;-6.288;2023-04-01T20:25:17;9.63;;;2.77;;
42586;SDS011;28216;53.362;-6.288;2023-04-01T20:30:51;7.60;;;2.08;;
42586;SDS011;28216;53.362;-6.288;2023-04-01T21:06:42;9.50;;;3.05;;
42586;SDS011;28216;53.362;-6.288;2023-04-01T21:23:28;11.30;;;2.50;;
42586;SDS011;28216;53.362;-6.288;2023-04-01T21:43:24;7.32;;;2.72;;
42586;SDS011;28216;53.362;-6.288;2023-04-01T21:49:16;7.07;;;2.50;;
42586;SDS011;28216;53.362;-6.288;2023-04-01T21:52:10;6.57;;;2.25;;
42586;SDS011;28216;53.362;-6.288;2023-04-01T22:00:43;9.35;;;3.03;;
42586;SDS011;28216;53.362;-6.288;2023-04-01T22:16:49;6.95;;;2.15;;
42586;SDS011;28216;53.362;-6.288;2023-04-01T22:22:22;10.25;;;2.05;;
42586;SDS011;28216;53.362;-6.288;2023-04-01T22:25:09;10.50;;;2.45;;
42586;SDS011;28216;53.362;-6.288;2023-04-01T22:35:51;8.90;;;2.35;;
42586;SDS011;28216;53.362;-6.288;2023-04-01T22:47:35;9.43;;;2.45;;
42586;SDS011;28216;53.362;-6.288;2023-04-01T22:52:47;5.88;;;1.85;;
42586;SDS011;28216;53.362;-6.288;2023-04-01T22:55:22;8.47;;;2.37;;
42586;SDS011;28216;53.362;-6.288;2023-04-01T22:57:57;8.70;;;2.17;;
42586;SDS011;28216;53.362;-6.288;2023-04-01T23:05:53;9.18;;;1.90;;
42586;SDS011;28216;53.362;-6.288;2023-04-01T23:10:52;6.38;;;2.15;;
42586;SDS011;28216;53.362;-6.288;2023-04-01T23:13:25;7.07;;;1.88;;
42586;SDS011;28216;53.362;-6.288;2023-04-01T23:15:54;9.95;;;2.25;;
42586;SDS011;28216;53.362;-6.288;2023-04-01T23:18:25;9.48;;;1.90;;
42586;SDS011;28216;53.362;-6.288;2023-04-01T23:21:03;9.45;;;2.22;;
42586;SDS011;28216;53.362;-6.288;2023-04-01T23:26:36;7.32;;;1.95;;
42586;SDS011;28216;53.362;-6.288;2023-04-01T23:29:13;11.02;;;2.72;;
42586;SDS011;28216;53.362;-6.288;2023-04-01T23:31:42;10.88;;;2.28;;
42586;SDS011;28216;53.362;-6.288;2023-04-01T23:36:44;14.82;;;2.35;;
42586;SDS011;28216;53.362;-6.288;2023-04-01T23:39:32;8.70;;;2.30;;
42586;SDS011;28216;53.362;-6.288;2023-04-01T23:44:48;8.80;;;2.33;;
42586;SDS011;28216;53.362;-6.288;2023-04-01T23:47:37;10.35;;;2.33;;
42586;SDS011;28216;53.362;-6.288;2023-04-01T23:50:04;8.27;;;2.38;;
42586;SDS011;28216;53.362;-6.288;2023-04-01T23:52:38;8.10;;;2.40;;
42586;SDS011;28216;53.362;-6.288;2023-04-01T23:55:14;8.05;;;2.05;;
42586;SDS011;28216;53.362;-6.288;2023-04-01T23:57:43;9.82;;;2.67;;
